X  Zatvori METAR Podaci o vazduhoplovstvu     LYNI Nis Airport
Temperatura
24°C Temperatura
11°C Tačka Rose
44% Vlaga



Vetar
5 M/S
12 MPH
19 KM/H
10 KTS



230°
JZ
Trenutna situacija

Partly Cloudy Partly Cloudy
Vazdušni pritisak 999.92 (hPa) - 29.53 (inHg)
Vidljivost 6.2 (Milja) - 10 (km)
Aerodrom
Aerodromski kod. LYNI

Lokacija: Nis Airport
Udaljenost: 63 (km)

Metar:
LYNI 271500Z 23010KT 180V310 9999 FEW040 24/11 Q1000 TEMPO 29014KT

Vreme: 27-09-2022 17:00 CEST